sensor_id;sensor_type;location;lat;lon;timestamp;P1;durP1;ratioP1;P2;durP2;ratioP2
13967;SDS011;39536;52.198;9.920;2022-11-23T00:01:17;3.60;;;2.83;;
13967;SDS011;39536;52.198;9.920;2022-11-23T00:03:46;5.07;;;2.70;;
13967;SDS011;39536;52.198;9.920;2022-11-23T00:06:13;4.23;;;2.33;;
13967;SDS011;39536;52.198;9.920;2022-11-23T00:08:41;3.97;;;2.47;;
13967;SDS011;39536;52.198;9.920;2022-11-23T00:11:08;4.07;;;2.70;;
13967;SDS011;39536;52.198;9.920;2022-11-23T00:13:34;6.07;;;3.03;;
13967;SDS011;39536;52.198;9.920;2022-11-23T00:16:05;4.50;;;2.50;;
13967;SDS011;39536;52.198;9.920;2022-11-23T00:18:33;6.13;;;2.43;;
13967;SDS011;39536;52.198;9.920;2022-11-23T00:20:59;3.63;;;3.00;;
13967;SDS011;39536;52.198;9.920;2022-11-23T00:23:31;2.70;;;2.27;;
13967;SDS011;39536;52.198;9.920;2022-11-23T00:25:57;4.63;;;3.07;;
13967;SDS011;39536;52.198;9.920;2022-11-23T00:28:24;4.27;;;2.87;;
13967;SDS011;39536;52.198;9.920;2022-11-23T00:30:50;3.30;;;2.23;;
13967;SDS011;39536;52.198;9.920;2022-11-23T00:33:18;3.73;;;2.20;;
13967;SDS011;39536;52.198;9.920;2022-11-23T00:35:45;3.40;;;2.80;;
13967;SDS011;39536;52.198;9.920;2022-11-23T00:38:12;5.07;;;2.90;;
13967;SDS011;39536;52.198;9.920;2022-11-23T00:40:38;4.20;;;2.50;;
13967;SDS011;39536;52.198;9.920;2022-11-23T00:43:05;2.83;;;2.63;;
13967;SDS011;39536;52.198;9.920;2022-11-23T00:45:31;5.40;;;3.03;;
13967;SDS011;39536;52.198;9.920;2022-11-23T00:47:58;4.30;;;2.97;;
13967;SDS011;39536;52.198;9.920;2022-11-23T00:50:26;2.40;;;2.20;;
13967;SDS011;39536;52.198;9.920;2022-11-23T00:52:52;4.17;;;2.67;;
13967;SDS011;39536;52.198;9.920;2022-11-23T00:55:19;3.30;;;2.47;;
13967;SDS011;39536;52.198;9.920;2022-11-23T00:57:45;4.40;;;2.90;;
13967;SDS011;39536;52.198;9.920;2022-11-23T01:00:12;7.20;;;2.70;;
13967;SDS011;39536;52.198;9.920;2022-11-23T01:02:39;3.13;;;2.67;;
13967;SDS011;39536;52.198;9.920;2022-11-23T01:05:06;8.70;;;2.43;;
13967;SDS011;39536;52.198;9.920;2022-11-23T01:07:35;5.00;;;2.90;;
13967;SDS011;39536;52.198;9.920;2022-11-23T01:10:01;4.93;;;2.77;;
13967;SDS011;39536;52.198;9.920;2022-11-23T01:12:28;3.60;;;2.87;;
13967;SDS011;39536;52.198;9.920;2022-11-23T01:14:55;3.10;;;2.87;;
13967;SDS011;39536;52.198;9.920;2022-11-23T01:17:21;4.20;;;3.20;;
13967;SDS011;39536;52.198;9.920;2022-11-23T01:19:48;2.87;;;2.60;;
13967;SDS011;39536;52.198;9.920;2022-11-23T01:22:15;4.80;;;2.90;;
13967;SDS011;39536;52.198;9.920;2022-11-23T01:24:43;2.80;;;2.60;;
13967;SDS011;39536;52.198;9.920;2022-11-23T01:27:09;2.50;;;2.30;;
13967;SDS011;39536;52.198;9.920;2022-11-23T01:29:36;3.00;;;2.00;;
13967;SDS011;39536;52.198;9.920;2022-11-23T01:32:02;5.17;;;3.03;;
13967;SDS011;39536;52.198;9.920;2022-11-23T01:34:29;4.07;;;2.40;;
13967;SDS011;39536;52.198;9.920;2022-11-23T01:36:55;3.67;;;2.77;;
13967;SDS011;39536;52.198;9.920;2022-11-23T01:39:22;4.37;;;2.60;;
13967;SDS011;39536;52.198;9.920;2022-11-23T01:41:50;3.93;;;2.97;;
13967;SDS011;39536;52.198;9.920;2022-11-23T01:44:23;4.23;;;2.83;;
13967;SDS011;39536;52.198;9.920;2022-11-23T01:46:52;3.73;;;2.73;;
13967;SDS011;39536;52.198;9.920;2022-11-23T01:49:19;3.60;;;1.97;;
13967;SDS011;39536;52.198;9.920;2022-11-23T01:51:48;2.83;;;2.20;;
13967;SDS011;39536;52.198;9.920;2022-11-23T01:54:19;3.37;;;2.27;;
13967;SDS011;39536;52.198;9.920;2022-11-23T01:56:52;3.23;;;2.23;;
13967;SDS011;39536;52.198;9.920;2022-11-23T01:59:21;3.37;;;2.37;;
13967;SDS011;39536;52.198;9.920;2022-11-23T02:01:51;4.97;;;1.83;;
13967;SDS011;39536;52.198;9.920;2022-11-23T02:04:18;4.27;;;2.10;;
13967;SDS011;39536;52.198;9.920;2022-11-23T02:06:49;3.87;;;2.37;;
13967;SDS011;39536;52.198;9.920;2022-11-23T02:09:17;2.40;;;2.20;;
13967;SDS011;39536;52.198;9.920;2022-11-23T02:11:46;4.23;;;2.33;;
13967;SDS011;39536;52.198;9.920;2022-11-23T02:14:14;5.23;;;2.00;;
13967;SDS011;39536;52.198;9.920;2022-11-23T02:16:41;3.93;;;2.07;;
13967;SDS011;39536;52.198;9.920;2022-11-23T02:19:11;4.53;;;2.20;;
13967;SDS011;39536;52.198;9.920;2022-11-23T02:21:46;3.70;;;2.27;;
13967;SDS011;39536;52.198;9.920;2022-11-23T02:24:17;3.47;;;2.40;;
13967;SDS011;39536;52.198;9.920;2022-11-23T02:26:50;4.33;;;2.73;;
13967;SDS011;39536;52.198;9.920;2022-11-23T02:29:18;3.90;;;2.57;;
13967;SDS011;39536;52.198;9.920;2022-11-23T02:31:47;2.57;;;2.30;;
13967;SDS011;39536;52.198;9.920;2022-11-23T02:34:15;3.70;;;2.40;;
13967;SDS011;39536;52.198;9.920;2022-11-23T02:36:42;5.63;;;2.50;;
13967;SDS011;39536;52.198;9.920;2022-11-23T02:39:12;4.03;;;2.10;;
13967;SDS011;39536;52.198;9.920;2022-11-23T02:41:41;3.70;;;2.27;;
13967;SDS011;39536;52.198;9.920;2022-11-23T02:44:13;4.77;;;2.50;;
13967;SDS011;39536;52.198;9.920;2022-11-23T02:46:47;3.93;;;2.20;;
13967;SDS011;39536;52.198;9.920;2022-11-23T02:49:14;3.03;;;1.97;;
13967;SDS011;39536;52.198;9.920;2022-11-23T02:51:40;3.87;;;2.67;;
13967;SDS011;39536;52.198;9.920;2022-11-23T02:54:07;4.17;;;2.40;;
13967;SDS011;39536;52.198;9.920;2022-11-23T02:56:34;2.43;;;1.90;;
13967;SDS011;39536;52.198;9.920;2022-11-23T02:59:00;4.50;;;2.40;;
13967;SDS011;39536;52.198;9.920;2022-11-23T03:01:28;6.23;;;2.53;;
13967;SDS011;39536;52.198;9.920;2022-11-23T03:03:55;3.67;;;2.50;;
13967;SDS011;39536;52.198;9.920;2022-11-23T03:06:21;4.13;;;3.73;;
13967;SDS011;39536;52.198;9.920;2022-11-23T03:08:48;5.33;;;2.40;;
13967;SDS011;39536;52.198;9.920;2022-11-23T03:11:14;3.00;;;2.30;;
13967;SDS011;39536;52.198;9.920;2022-11-23T03:13:41;4.17;;;2.47;;
13967;SDS011;39536;52.198;9.920;2022-11-23T03:16:08;2.40;;;2.20;;
13967;SDS011;39536;52.198;9.920;2022-11-23T03:18:37;4.50;;;3.10;;
13967;SDS011;39536;52.198;9.920;2022-11-23T03:21:04;2.50;;;2.03;;
13967;SDS011;39536;52.198;9.920;2022-11-23T03:23:32;3.33;;;2.53;;
13967;SDS011;39536;52.198;9.920;2022-11-23T03:25:59;2.87;;;2.37;;
13967;SDS011;39536;52.198;9.920;2022-11-23T03:28:26;3.47;;;2.43;;
13967;SDS011;39536;52.198;9.920;2022-11-23T03:30:52;2.30;;;1.97;;
13967;SDS011;39536;52.198;9.920;2022-11-23T03:33:19;4.50;;;2.40;;
13967;SDS011;39536;52.198;9.920;2022-11-23T03:35:47;6.07;;;2.33;;
13967;SDS011;39536;52.198;9.920;2022-11-23T03:38:14;3.43;;;1.90;;
13967;SDS011;39536;52.198;9.920;2022-11-23T03:40:42;4.93;;;2.43;;
13967;SDS011;39536;52.198;9.920;2022-11-23T03:43:10;6.20;;;3.00;;
13967;SDS011;39536;52.198;9.920;2022-11-23T03:45:37;5.17;;;2.83;;
13967;SDS011;39536;52.198;9.920;2022-11-23T03:48:03;3.77;;;2.30;;
13967;SDS011;39536;52.198;9.920;2022-11-23T03:50:31;5.17;;;2.43;;
13967;SDS011;39536;52.198;9.920;2022-11-23T03:52:59;5.40;;;2.90;;
13967;SDS011;39536;52.198;9.920;2022-11-23T03:55:25;4.40;;;2.70;;
13967;SDS011;39536;52.198;9.920;2022-11-23T03:57:52;2.70;;;2.33;;
13967;SDS011;39536;52.198;9.920;2022-11-23T04:00:23;3.30;;;2.47;;
13967;SDS011;39536;52.198;9.920;2022-11-23T04:02:50;4.97;;;2.87;;
13967;SDS011;39536;52.198;9.920;2022-11-23T04:05:17;3.43;;;2.43;;
13967;SDS011;39536;52.198;9.920;2022-11-23T04:07:44;3.50;;;2.40;;
13967;SDS011;39536;52.198;9.920;2022-11-23T04:10:13;3.90;;;2.30;;
13967;SDS011;39536;52.198;9.920;2022-11-23T04:12:40;4.40;;;2.50;;
13967;SDS011;39536;52.198;9.920;2022-11-23T04:15:06;3.30;;;2.40;;
13967;SDS011;39536;52.198;9.920;2022-11-23T04:17:33;6.63;;;2.30;;
13967;SDS011;39536;52.198;9.920;2022-11-23T04:20:00;5.30;;;2.03;;
13967;SDS011;39536;52.198;9.920;2022-11-23T04:22:26;4.90;;;2.70;;
13967;SDS011;39536;52.198;9.920;2022-11-23T04:24:54;5.77;;;2.43;;
13967;SDS011;39536;52.198;9.920;2022-11-23T04:27:21;4.47;;;2.27;;
13967;SDS011;39536;52.198;9.920;2022-11-23T04:29:48;3.30;;;2.37;;
13967;SDS011;39536;52.198;9.920;2022-11-23T04:32:14;4.57;;;2.30;;
13967;SDS011;39536;52.198;9.920;2022-11-23T04:34:41;3.00;;;2.37;;
13967;SDS011;39536;52.198;9.920;2022-11-23T04:37:08;4.43;;;2.20;;
13967;SDS011;39536;52.198;9.920;2022-11-23T04:39:34;2.00;;;1.87;;
13967;SDS011;39536;52.198;9.920;2022-11-23T04:42:01;2.70;;;1.80;;
13967;SDS011;39536;52.198;9.920;2022-11-23T04:44:28;4.67;;;2.53;;
13967;SDS011;39536;52.198;9.920;2022-11-23T04:46:55;4.87;;;1.80;;
13967;SDS011;39536;52.198;9.920;2022-11-23T04:49:22;2.63;;;2.10;;
13967;SDS011;39536;52.198;9.920;2022-11-23T04:51:48;3.20;;;2.03;;
13967;SDS011;39536;52.198;9.920;2022-11-23T04:54:15;4.43;;;2.70;;
13967;SDS011;39536;52.198;9.920;2022-11-23T04:56:41;6.97;;;2.73;;
13967;SDS011;39536;52.198;9.920;2022-11-23T04:59:08;4.03;;;2.27;;
13967;SDS011;39536;52.198;9.920;2022-11-23T05:01:35;6.30;;;2.30;;
13967;SDS011;39536;52.198;9.920;2022-11-23T05:04:02;4.77;;;2.30;;
13967;SDS011;39536;52.198;9.920;2022-11-23T05:06:29;5.80;;;2.57;;
13967;SDS011;39536;52.198;9.920;2022-11-23T05:08:56;3.23;;;2.00;;
13967;SDS011;39536;52.198;9.920;2022-11-23T05:11:22;5.07;;;2.43;;
13967;SDS011;39536;52.198;9.920;2022-11-23T05:13:49;4.30;;;2.27;;
13967;SDS011;39536;52.198;9.920;2022-11-23T05:16:15;4.90;;;2.40;;
13967;SDS011;39536;52.198;9.920;2022-11-23T05:18:43;6.90;;;2.47;;
13967;SDS011;39536;52.198;9.920;2022-11-23T05:21:10;6.53;;;2.60;;
13967;SDS011;39536;52.198;9.920;2022-11-23T05:23:36;5.03;;;2.43;;
13967;SDS011;39536;52.198;9.920;2022-11-23T05:26:03;6.10;;;2.10;;
13967;SDS011;39536;52.198;9.920;2022-11-23T05:28:29;5.70;;;1.70;;
13967;SDS011;39536;52.198;9.920;2022-11-23T05:30:56;3.47;;;2.23;;
13967;SDS011;39536;52.198;9.920;2022-11-23T05:33:22;4.33;;;2.50;;
13967;SDS011;39536;52.198;9.920;2022-11-23T05:35:50;2.63;;;1.70;;
13967;SDS011;39536;52.198;9.920;2022-11-23T05:38:17;3.37;;;2.17;;
13967;SDS011;39536;52.198;9.920;2022-11-23T05:40:43;5.47;;;2.93;;
13967;SDS011;39536;52.198;9.920;2022-11-23T05:43:10;7.60;;;2.63;;
13967;SDS011;39536;52.198;9.920;2022-11-23T05:45:37;6.70;;;2.40;;
13967;SDS011;39536;52.198;9.920;2022-11-23T05:48:04;2.80;;;2.00;;
13967;SDS011;39536;52.198;9.920;2022-11-23T05:50:30;3.83;;;2.17;;
13967;SDS011;39536;52.198;9.920;2022-11-23T05:52:58;4.07;;;1.73;;
13967;SDS011;39536;52.198;9.920;2022-11-23T05:55:25;3.53;;;2.60;;
13967;SDS011;39536;52.198;9.920;2022-11-23T05:57:52;5.37;;;2.33;;
13967;SDS011;39536;52.198;9.920;2022-11-23T06:00:19;4.17;;;1.80;;
13967;SDS011;39536;52.198;9.920;2022-11-23T06:02:46;8.30;;;2.80;;
13967;SDS011;39536;52.198;9.920;2022-11-23T06:05:13;2.93;;;1.97;;
13967;SDS011;39536;52.198;9.920;2022-11-23T06:07:40;2.53;;;1.93;;
13967;SDS011;39536;52.198;9.920;2022-11-23T06:10:08;5.60;;;2.63;;
13967;SDS011;39536;52.198;9.920;2022-11-23T06:12:36;5.87;;;2.13;;
13967;SDS011;39536;52.198;9.920;2022-11-23T06:15:02;4.93;;;2.30;;
13967;SDS011;39536;52.198;9.920;2022-11-23T06:17:30;5.90;;;2.30;;
13967;SDS011;39536;52.198;9.920;2022-11-23T06:19:56;2.90;;;2.17;;
13967;SDS011;39536;52.198;9.920;2022-11-23T06:22:23;3.20;;;1.83;;
13967;SDS011;39536;52.198;9.920;2022-11-23T06:24:49;4.70;;;2.10;;
13967;SDS011;39536;52.198;9.920;2022-11-23T06:27:17;3.87;;;2.03;;
13967;SDS011;39536;52.198;9.920;2022-11-23T06:29:44;6.87;;;2.37;;
13967;SDS011;39536;52.198;9.920;2022-11-23T06:32:11;5.70;;;2.30;;
13967;SDS011;39536;52.198;9.920;2022-11-23T06:34:38;3.53;;;2.00;;
13967;SDS011;39536;52.198;9.920;2022-11-23T06:37:05;5.10;;;2.30;;
13967;SDS011;39536;52.198;9.920;2022-11-23T06:39:31;3.10;;;1.87;;
13967;SDS011;39536;52.198;9.920;2022-11-23T06:41:58;6.37;;;2.43;;
13967;SDS011;39536;52.198;9.920;2022-11-23T06:44:26;4.20;;;2.40;;
13967;SDS011;39536;52.198;9.920;2022-11-23T06:46:54;4.37;;;2.23;;
13967;SDS011;39536;52.198;9.920;2022-11-23T06:49:21;9.10;;;2.33;;
13967;SDS011;39536;52.198;9.920;2022-11-23T06:51:47;5.57;;;2.00;;
13967;SDS011;39536;52.198;9.920;2022-11-23T06:54:14;3.37;;;2.00;;
13967;SDS011;39536;52.198;9.920;2022-11-23T06:56:40;4.77;;;2.70;;
13967;SDS011;39536;52.198;9.920;2022-11-23T06:59:07;3.83;;;2.43;;
13967;SDS011;39536;52.198;9.920;2022-11-23T07:01:35;4.20;;;2.47;;
13967;SDS011;39536;52.198;9.920;2022-11-23T07:04:01;4.53;;;2.23;;
13967;SDS011;39536;52.198;9.920;2022-11-23T07:06:28;4.57;;;2.50;;
13967;SDS011;39536;52.198;9.920;2022-11-23T07:08:55;2.77;;;2.37;;
13967;SDS011;39536;52.198;9.920;2022-11-23T07:11:21;3.43;;;2.43;;
13967;SDS011;39536;52.198;9.920;2022-11-23T07:13:48;4.37;;;2.17;;
13967;SDS011;39536;52.198;9.920;2022-11-23T07:16:14;2.53;;;2.20;;
13967;SDS011;39536;52.198;9.920;2022-11-23T07:18:42;5.70;;;3.07;;
13967;SDS011;39536;52.198;9.920;2022-11-23T07:21:08;3.90;;;2.53;;
13967;SDS011;39536;52.198;9.920;2022-11-23T07:23:35;6.60;;;2.87;;
13967;SDS011;39536;52.198;9.920;2022-11-23T07:26:05;10.07;;;3.10;;
13967;SDS011;39536;52.198;9.920;2022-11-23T07:28:31;5.80;;;2.00;;
13967;SDS011;39536;52.198;9.920;2022-11-23T07:30:58;3.53;;;2.60;;
13967;SDS011;39536;52.198;9.920;2022-11-23T07:33:24;5.27;;;2.77;;
13967;SDS011;39536;52.198;9.920;2022-11-23T07:35:52;4.03;;;3.37;;
13967;SDS011;39536;52.198;9.920;2022-11-23T07:38:19;4.20;;;2.47;;
13967;SDS011;39536;52.198;9.920;2022-11-23T07:40:47;3.60;;;2.30;;
13967;SDS011;39536;52.198;9.920;2022-11-23T07:43:14;4.70;;;2.43;;
13967;SDS011;39536;52.198;9.920;2022-11-23T07:45:41;5.03;;;2.10;;
13967;SDS011;39536;52.198;9.920;2022-11-23T07:48:08;5.97;;;2.33;;
13967;SDS011;39536;52.198;9.920;2022-11-23T07:50:35;3.87;;;2.67;;
13967;SDS011;39536;52.198;9.920;2022-11-23T07:53:05;6.53;;;3.17;;
13967;SDS011;39536;52.198;9.920;2022-11-23T07:55:32;4.83;;;3.27;;
13967;SDS011;39536;52.198;9.920;2022-11-23T07:57:59;3.43;;;2.40;;
13967;SDS011;39536;52.198;9.920;2022-11-23T08:00:27;6.87;;;4.70;;
13967;SDS011;39536;52.198;9.920;2022-11-23T08:02:54;10.23;;;5.50;;
13967;SDS011;39536;52.198;9.920;2022-11-23T08:05:22;4.90;;;3.73;;
13967;SDS011;39536;52.198;9.920;2022-11-23T08:07:48;5.77;;;3.90;;
13967;SDS011;39536;52.198;9.920;2022-11-23T08:10:16;9.07;;;6.90;;
13967;SDS011;39536;52.198;9.920;2022-11-23T08:12:47;4.20;;;3.67;;
13967;SDS011;39536;52.198;9.920;2022-11-23T08:15:14;6.97;;;4.10;;
13967;SDS011;39536;52.198;9.920;2022-11-23T08:17:41;11.60;;;4.73;;
13967;SDS011;39536;52.198;9.920;2022-11-23T08:20:07;5.80;;;3.40;;
13967;SDS011;39536;52.198;9.920;2022-11-23T08:22:37;5.80;;;3.00;;
13967;SDS011;39536;52.198;9.920;2022-11-23T08:25:04;6.97;;;2.80;;
13967;SDS011;39536;52.198;9.920;2022-11-23T08:27:32;9.23;;;4.03;;
13967;SDS011;39536;52.198;9.920;2022-11-23T08:29:59;5.80;;;4.37;;
13967;SDS011;39536;52.198;9.920;2022-11-23T08:32:32;5.13;;;3.10;;
13967;SDS011;39536;52.198;9.920;2022-11-23T08:34:59;4.20;;;2.80;;
13967;SDS011;39536;52.198;9.920;2022-11-23T08:37:26;3.87;;;2.30;;
13967;SDS011;39536;52.198;9.920;2022-11-23T08:39:52;4.50;;;1.93;;
13967;SDS011;39536;52.198;9.920;2022-11-23T08:42:19;3.00;;;1.90;;
13967;SDS011;39536;52.198;9.920;2022-11-23T08:44:46;7.07;;;2.97;;
13967;SDS011;39536;52.198;9.920;2022-11-23T08:47:13;4.53;;;2.40;;
13967;SDS011;39536;52.198;9.920;2022-11-23T08:49:39;3.23;;;1.90;;
13967;SDS011;39536;52.198;9.920;2022-11-23T08:52:06;6.97;;;2.20;;
13967;SDS011;39536;52.198;9.920;2022-11-23T08:54:32;2.93;;;2.60;;
13967;SDS011;39536;52.198;9.920;2022-11-23T08:56:59;4.07;;;2.20;;
13967;SDS011;39536;52.198;9.920;2022-11-23T08:59:25;3.20;;;2.00;;
13967;SDS011;39536;52.198;9.920;2022-11-23T09:01:53;5.10;;;2.47;;
13967;SDS011;39536;52.198;9.920;2022-11-23T09:04:20;5.90;;;2.50;;
13967;SDS011;39536;52.198;9.920;2022-11-23T09:06:46;5.93;;;3.20;;
13967;SDS011;39536;52.198;9.920;2022-11-23T09:09:13;4.30;;;2.10;;
13967;SDS011;39536;52.198;9.920;2022-11-23T09:11:39;6.63;;;2.30;;
13967;SDS011;39536;52.198;9.920;2022-11-23T09:14:06;6.13;;;2.90;;
13967;SDS011;39536;52.198;9.920;2022-11-23T09:16:32;6.67;;;2.50;;
13967;SDS011;39536;52.198;9.920;2022-11-23T09:19:00;5.97;;;2.00;;
13967;SDS011;39536;52.198;9.920;2022-11-23T09:21:27;6.43;;;2.37;;
13967;SDS011;39536;52.198;9.920;2022-11-23T09:23:57;4.70;;;2.50;;
13967;SDS011;39536;52.198;9.920;2022-11-23T09:26:24;3.87;;;2.43;;
13967;SDS011;39536;52.198;9.920;2022-11-23T09:28:51;6.47;;;2.33;;
13967;SDS011;39536;52.198;9.920;2022-11-23T09:31:17;5.60;;;2.57;;
13967;SDS011;39536;52.198;9.920;2022-11-23T09:33:44;5.10;;;2.67;;
13967;SDS011;39536;52.198;9.920;2022-11-23T09:36:12;4.93;;;2.50;;
13967;SDS011;39536;52.198;9.920;2022-11-23T09:38:38;3.33;;;2.60;;
13967;SDS011;39536;52.198;9.920;2022-11-23T09:43:59;7.03;;;1.97;;
13967;SDS011;39536;52.198;9.920;2022-11-23T09:46:31;4.00;;;2.17;;
13967;SDS011;39536;52.198;9.920;2022-11-23T09:49:12;4.90;;;3.20;;
13967;SDS011;39536;52.198;9.920;2022-11-23T09:51:43;4.17;;;2.37;;
13967;SDS011;39536;52.198;9.920;2022-11-23T09:54:18;5.43;;;2.97;;
13967;SDS011;39536;52.198;9.920;2022-11-23T09:56:50;5.47;;;2.40;;
13967;SDS011;39536;52.198;9.920;2022-11-23T09:59:22;4.10;;;2.30;;
13967;SDS011;39536;52.198;9.920;2022-11-23T10:01:56;4.03;;;2.10;;
13967;SDS011;39536;52.198;9.920;2022-11-23T10:04:25;3.83;;;2.20;;
13967;SDS011;39536;52.198;9.920;2022-11-23T10:07:01;5.40;;;2.00;;
13967;SDS011;39536;52.198;9.920;2022-11-23T10:09:37;5.67;;;3.07;;
13967;SDS011;39536;52.198;9.920;2022-11-23T10:12:17;4.67;;;2.57;;
13967;SDS011;39536;52.198;9.920;2022-11-23T10:14:54;5.07;;;3.17;;
13967;SDS011;39536;52.198;9.920;2022-11-23T10:20:35;3.40;;;2.27;;
13967;SDS011;39536;52.198;9.920;2022-11-23T10:23:12;3.97;;;2.47;;
13967;SDS011;39536;52.198;9.920;2022-11-23T10:25:45;4.73;;;2.30;;
13967;SDS011;39536;52.198;9.920;2022-11-23T10:28:16;4.60;;;1.90;;
13967;SDS011;39536;52.198;9.920;2022-11-23T10:30:44;4.73;;;2.20;;
13967;SDS011;39536;52.198;9.920;2022-11-23T10:33:16;8.80;;;2.43;;
13967;SDS011;39536;52.198;9.920;2022-11-23T10:35:50;5.13;;;2.43;;
13967;SDS011;39536;52.198;9.920;2022-11-23T10:38:23;4.33;;;2.00;;
13967;SDS011;39536;52.198;9.920;2022-11-23T10:40:55;3.13;;;1.80;;
13967;SDS011;39536;52.198;9.920;2022-11-23T10:43:27;3.70;;;1.80;;
13967;SDS011;39536;52.198;9.920;2022-11-23T10:48:55;3.27;;;2.10;;
13967;SDS011;39536;52.198;9.920;2022-11-23T10:51:33;3.83;;;2.00;;
13967;SDS011;39536;52.198;9.920;2022-11-23T10:54:01;2.93;;;2.00;;
13967;SDS011;39536;52.198;9.920;2022-11-23T10:56:30;3.03;;;1.77;;
13967;SDS011;39536;52.198;9.920;2022-11-23T10:58:58;4.87;;;2.43;;
13967;SDS011;39536;52.198;9.920;2022-11-23T11:01:25;5.63;;;2.37;;
13967;SDS011;39536;52.198;9.920;2022-11-23T11:03:54;4.37;;;2.03;;
13967;SDS011;39536;52.198;9.920;2022-11-23T11:06:22;6.93;;;1.97;;
13967;SDS011;39536;52.198;9.920;2022-11-23T11:08:50;4.40;;;2.43;;
13967;SDS011;39536;52.198;9.920;2022-11-23T11:11:24;5.27;;;2.30;;
13967;SDS011;39536;52.198;9.920;2022-11-23T11:14:00;2.30;;;2.10;;
13967;SDS011;39536;52.198;9.920;2022-11-23T11:16:30;5.43;;;2.47;;
13967;SDS011;39536;52.198;9.920;2022-11-23T11:18:58;4.37;;;2.20;;
13967;SDS011;39536;52.198;9.920;2022-11-23T11:21:28;4.63;;;2.90;;
13967;SDS011;39536;52.198;9.920;2022-11-23T11:23:59;7.97;;;2.50;;
13967;SDS011;39536;52.198;9.920;2022-11-23T11:26:29;6.10;;;2.83;;
13967;SDS011;39536;52.198;9.920;2022-11-23T11:28:59;5.93;;;2.53;;
13967;SDS011;39536;52.198;9.920;2022-11-23T11:31:44;4.63;;;2.17;;
13967;SDS011;39536;52.198;9.920;2022-11-23T11:34:19;3.07;;;2.00;;
13967;SDS011;39536;52.198;9.920;2022-11-23T11:36:50;12.17;;;3.20;;
13967;SDS011;39536;52.198;9.920;2022-11-23T11:39:23;4.13;;;2.30;;
13967;SDS011;39536;52.198;9.920;2022-11-23T11:41:56;5.83;;;2.37;;
13967;SDS011;39536;52.198;9.920;2022-11-23T11:44:26;4.60;;;2.23;;
13967;SDS011;39536;52.198;9.920;2022-11-23T11:46:56;3.93;;;2.00;;
13967;SDS011;39536;52.198;9.920;2022-11-23T11:49:28;7.53;;;2.33;;
13967;SDS011;39536;52.198;9.920;2022-11-23T11:51:59;6.90;;;2.73;;
13967;SDS011;39536;52.198;9.920;2022-11-23T11:54:34;3.07;;;2.10;;
13967;SDS011;39536;52.198;9.920;2022-11-23T11:57:11;5.43;;;2.70;;
13967;SDS011;39536;52.198;9.920;2022-11-23T11:59:44;6.30;;;2.37;;
13967;SDS011;39536;52.198;9.920;2022-11-23T12:02:19;7.77;;;2.10;;
13967;SDS011;39536;52.198;9.920;2022-11-23T12:04:53;12.70;;;3.23;;
13967;SDS011;39536;52.198;9.920;2022-11-23T12:07:28;4.37;;;2.33;;
13967;SDS011;39536;52.198;9.920;2022-11-23T12:09:59;7.07;;;2.70;;
13967;SDS011;39536;52.198;9.920;2022-11-23T12:12:33;10.97;;;2.77;;
13967;SDS011;39536;52.198;9.920;2022-11-23T12:15:02;5.57;;;1.93;;
13967;SDS011;39536;52.198;9.920;2022-11-23T12:17:36;7.53;;;2.03;;
13967;SDS011;39536;52.198;9.920;2022-11-23T12:20:18;5.70;;;2.00;;
13967;SDS011;39536;52.198;9.920;2022-11-23T12:22:57;5.50;;;2.70;;
13967;SDS011;39536;52.198;9.920;2022-11-23T12:25:31;5.60;;;2.43;;
13967;SDS011;39536;52.198;9.920;2022-11-23T12:28:08;3.20;;;2.10;;
13967;SDS011;39536;52.198;9.920;2022-11-23T12:30:55;13.40;;;2.63;;
13967;SDS011;39536;52.198;9.920;2022-11-23T12:33:33;4.70;;;2.57;;
13967;SDS011;39536;52.198;9.920;2022-11-23T12:39:13;4.30;;;2.63;;
13967;SDS011;39536;52.198;9.920;2022-11-23T12:41:51;8.90;;;2.70;;
13967;SDS011;39536;52.198;9.920;2022-11-23T12:44:42;4.80;;;2.63;;
13967;SDS011;39536;52.198;9.920;2022-11-23T12:47:28;6.73;;;2.73;;
13967;SDS011;39536;52.198;9.920;2022-11-23T12:50:07;5.73;;;2.90;;
13967;SDS011;39536;52.198;9.920;2022-11-23T12:52:50;6.73;;;2.80;;
13967;SDS011;39536;52.198;9.920;2022-11-23T12:55:23;8.30;;;2.87;;
13967;SDS011;39536;52.198;9.920;2022-11-23T12:57:58;8.00;;;3.37;;
13967;SDS011;39536;52.198;9.920;2022-11-23T13:00:32;10.90;;;4.10;;
13967;SDS011;39536;52.198;9.920;2022-11-23T13:03:14;6.80;;;2.50;;
13967;SDS011;39536;52.198;9.920;2022-11-23T13:06:30;14.27;;;5.23;;
13967;SDS011;39536;52.198;9.920;2022-11-23T13:09:27;10.70;;;6.37;;
13967;SDS011;39536;52.198;9.920;2022-11-23T13:12:20;7.10;;;4.43;;
13967;SDS011;39536;52.198;9.920;2022-11-23T13:15:09;14.77;;;7.53;;
13967;SDS011;39536;52.198;9.920;2022-11-23T13:18:11;10.63;;;6.43;;
13967;SDS011;39536;52.198;9.920;2022-11-23T13:20:48;8.93;;;4.03;;
13967;SDS011;39536;52.198;9.920;2022-11-23T13:23:29;14.70;;;7.63;;
13967;SDS011;39536;52.198;9.920;2022-11-23T13:26:12;3.70;;;2.03;;
13967;SDS011;39536;52.198;9.920;2022-11-23T13:28:40;3.03;;;1.87;;
13967;SDS011;39536;52.198;9.920;2022-11-23T13:33:56;5.47;;;2.53;;
13967;SDS011;39536;52.198;9.920;2022-11-23T13:36:34;6.83;;;2.73;;
13967;SDS011;39536;52.198;9.920;2022-11-23T13:42:20;7.23;;;2.17;;
13967;SDS011;39536;52.198;9.920;2022-11-23T13:44:51;6.17;;;2.23;;
13967;SDS011;39536;52.198;9.920;2022-11-23T13:50:56;4.87;;;1.53;;
13967;SDS011;39536;52.198;9.920;2022-11-23T13:53:25;2.97;;;1.93;;
13967;SDS011;39536;52.198;9.920;2022-11-23T13:55:55;5.37;;;1.80;;
13967;SDS011;39536;52.198;9.920;2022-11-23T13:58:37;5.00;;;1.70;;
13967;SDS011;39536;52.198;9.920;2022-11-23T14:01:05;4.90;;;1.90;;
13967;SDS011;39536;52.198;9.920;2022-11-23T14:06:45;4.20;;;2.20;;
13967;SDS011;39536;52.198;9.920;2022-11-23T14:09:17;3.20;;;1.47;;
13967;SDS011;39536;52.198;9.920;2022-11-23T14:11:54;2.73;;;1.73;;
13967;SDS011;39536;52.198;9.920;2022-11-23T14:14:28;6.83;;;2.17;;
13967;SDS011;39536;52.198;9.920;2022-11-23T14:23:01;5.07;;;2.37;;
13967;SDS011;39536;52.198;9.920;2022-11-23T14:25:43;4.43;;;3.10;;
13967;SDS011;39536;52.198;9.920;2022-11-23T14:28:25;4.50;;;2.70;;
13967;SDS011;39536;52.198;9.920;2022-11-23T14:31:07;4.87;;;2.83;;
13967;SDS011;39536;52.198;9.920;2022-11-23T14:33:43;8.20;;;2.90;;
13967;SDS011;39536;52.198;9.920;2022-11-23T14:36:19;4.47;;;2.70;;
13967;SDS011;39536;52.198;9.920;2022-11-23T14:42:00;5.97;;;2.67;;
13967;SDS011;39536;52.198;9.920;2022-11-23T14:44:30;7.50;;;2.40;;
13967;SDS011;39536;52.198;9.920;2022-11-23T14:46:59;9.43;;;3.90;;
13967;SDS011;39536;52.198;9.920;2022-11-23T14:49:26;7.50;;;2.73;;
13967;SDS011;39536;52.198;9.920;2022-11-23T14:51:53;6.80;;;2.83;;
13967;SDS011;39536;52.198;9.920;2022-11-23T14:54:20;10.27;;;4.20;;
13967;SDS011;39536;52.198;9.920;2022-11-23T14:56:47;8.40;;;3.70;;
13967;SDS011;39536;52.198;9.920;2022-11-23T14:59:18;7.80;;;3.47;;
13967;SDS011;39536;52.198;9.920;2022-11-23T15:01:49;5.20;;;3.40;;
13967;SDS011;39536;52.198;9.920;2022-11-23T15:04:20;4.77;;;3.30;;
13967;SDS011;39536;52.198;9.920;2022-11-23T15:06:49;7.07;;;4.63;;
13967;SDS011;39536;52.198;9.920;2022-11-23T15:09:22;5.70;;;3.77;;
13967;SDS011;39536;52.198;9.920;2022-11-23T15:12:06;6.70;;;4.47;;
13967;SDS011;39536;52.198;9.920;2022-11-23T15:14:46;10.07;;;8.17;;
13967;SDS011;39536;52.198;9.920;2022-11-23T15:17:13;14.10;;;12.67;;
13967;SDS011;39536;52.198;9.920;2022-11-23T15:19:40;14.83;;;9.93;;
13967;SDS011;39536;52.198;9.920;2022-11-23T15:22:12;24.30;;;17.37;;
13967;SDS011;39536;52.198;9.920;2022-11-23T15:24:41;26.80;;;16.87;;
13967;SDS011;39536;52.198;9.920;2022-11-23T15:27:11;29.13;;;16.53;;
13967;SDS011;39536;52.198;9.920;2022-11-23T15:29:49;19.33;;;13.73;;
13967;SDS011;39536;52.198;9.920;2022-11-23T15:32:22;22.77;;;13.73;;
13967;SDS011;39536;52.198;9.920;2022-11-23T15:34:50;20.97;;;12.27;;